IGO3KG VOHS-VABB
Flight info
| Callsign | IGO3KG |
|---|---|
| Flight time | 1h 6m |
| Altitude | 36000 |
| Route | TAMIV5 APUSU W18 OPAKA EMRAK2A |
| Aircraft | A320/M-SDE3FGHIRWY/LB1 |
Departure
| Time | 2026-04-25 07:38 |
|---|---|
| Airport | Rajiv Gandhi International Airport (VOHS) |
Arrival
| Time | 2026-04-25 08:45 |
|---|---|
| Airport | Chhatrapati Shivaji Maharaj International Airport (VABB) |
| Time | Latitude | Longitude | Altitude | Speed | Heading |
|---|---|---|---|---|---|
| 2026-04-25 06:57 | 17.23658 | 78.42471 | 1980 ft | 0 kts | 204° |
| 2026-04-25 07:11 | 17.23659 | 78.42471 | 1980 ft | 0 kts | 204° |
| 2026-04-25 07:21 | 17.23674 | 78.42479 | 1979 ft | 4 kts | 213° |
| 2026-04-25 07:21 | 17.23693 | 78.42497 | 1980 ft | 4 kts | 242° |
| 2026-04-25 07:21 | 17.23698 | 78.42522 | 1979 ft | 4 kts | 290° |
| 2026-04-25 07:21 | 17.23703 | 78.42511 | 1979 ft | 4 kts | 291° |
| 2026-04-25 07:22 | 17.23707 | 78.42502 | 1980 ft | 2 kts | 294° |
| 2026-04-25 07:25 | 17.23708 | 78.42499 | 1980 ft | 2 kts | 294° |
| 2026-04-25 07:25 | 17.23715 | 78.42480 | 1980 ft | 4 kts | 288° |
| 2026-04-25 07:25 | 17.23717 | 78.42444 | 1981 ft | 6 kts | 267° |
| 2026-04-25 07:26 | 17.23717 | 78.42367 | 1981 ft | 10 kts | 271° |
| 2026-04-25 07:26 | 17.23716 | 78.42289 | 1980 ft | 9 kts | 269° |
| 2026-04-25 07:26 | 17.23705 | 78.42250 | 1980 ft | 5 kts | 221° |
| 2026-04-25 07:26 | 17.23662 | 78.42243 | 1981 ft | 7 kts | 179° |
| 2026-04-25 07:27 | 17.23625 | 78.42244 | 1981 ft | 9 kts | 179° |
| 2026-04-25 07:27 | 17.23559 | 78.42245 | 1980 ft | 11 kts | 179° |
| 2026-04-25 07:27 | 17.23478 | 78.42246 | 1981 ft | 13 kts | 179° |
| 2026-04-25 07:27 | 17.23384 | 78.42247 | 1981 ft | 14 kts | 179° |
| 2026-04-25 07:28 | 17.23280 | 78.42248 | 1981 ft | 13 kts | 179° |
| 2026-04-25 07:28 | 17.23230 | 78.42292 | 1981 ft | 11 kts | 102° |
| 2026-04-25 07:28 | 17.23233 | 78.42375 | 1981 ft | 12 kts | 89° |
| 2026-04-25 07:28 | 17.23235 | 78.42471 | 1981 ft | 14 kts | 89° |
| 2026-04-25 07:29 | 17.23236 | 78.42585 | 1980 ft | 17 kts | 89° |
| 2026-04-25 07:29 | 17.23239 | 78.42713 | 1980 ft | 19 kts | 89° |
| 2026-04-25 07:29 | 17.23241 | 78.42855 | 1980 ft | 21 kts | 89° |
| 2026-04-25 07:29 | 17.23243 | 78.43013 | 1980 ft | 23 kts | 89° |
| 2026-04-25 07:30 | 17.23245 | 78.43153 | 1979 ft | 19 kts | 90° |
| 2026-04-25 07:30 | 17.23247 | 78.43296 | 1979 ft | 21 kts | 89° |
| 2026-04-25 07:30 | 17.23249 | 78.43389 | 1979 ft | 0 kts | 89° |
| 2026-04-25 07:31 | 17.23248 | 78.43391 | 1979 ft | 0 kts | 100° |
| 2026-04-25 07:32 | 17.23247 | 78.43396 | 1979 ft | 0 kts | 98° |
| 2026-04-25 07:32 | 17.23242 | 78.43396 | 1979 ft | 1 kts | 156° |
| 2026-04-25 07:33 | 17.23241 | 78.43384 | 1983 ft | 4 kts | 275° |
| 2026-04-25 07:33 | 17.23247 | 78.43339 | 1980 ft | 8 kts | 276° |
| 2026-04-25 07:33 | 17.23248 | 78.43275 | 1979 ft | 10 kts | 270° |
| 2026-04-25 07:33 | 17.23243 | 78.43192 | 1979 ft | 13 kts | 250° |
| 2026-04-25 07:34 | 17.23161 | 78.43153 | 1980 ft | 15 kts | 178° |
| 2026-04-25 07:34 | 17.23083 | 78.43213 | 1982 ft | 16 kts | 101° |
| 2026-04-25 07:34 | 17.23086 | 78.43339 | 1979 ft | 20 kts | 87° |
| 2026-04-25 07:34 | 17.23090 | 78.43509 | 1979 ft | 27 kts | 89° |
| 2026-04-25 07:35 | 17.23092 | 78.43721 | 1980 ft | 31 kts | 90° |
| 2026-04-25 07:35 | 17.23096 | 78.43951 | 1980 ft | 32 kts | 89° |
| 2026-04-25 07:35 | 17.23100 | 78.44189 | 1981 ft | 34 kts | 90° |
| 2026-04-25 07:35 | 17.23105 | 78.44439 | 1981 ft | 35 kts | 89° |
| 2026-04-25 07:36 | 17.23109 | 78.44695 | 1980 ft | 37 kts | 89° |
| 2026-04-25 07:36 | 17.23110 | 78.44968 | 1979 ft | 38 kts | 90° |
| 2026-04-25 07:36 | 17.23113 | 78.45202 | 1980 ft | 21 kts | 89° |
| 2026-04-25 07:36 | 17.23091 | 78.45305 | 1981 ft | 11 kts | 139° |
| 2026-04-25 07:37 | 17.23010 | 78.45315 | 1983 ft | 13 kts | 191° |
| 2026-04-25 07:37 | 17.22929 | 78.45266 | 1980 ft | 14 kts | 228° |
| 2026-04-25 07:37 | 17.22904 | 78.45163 | 1981 ft | 16 kts | 268° |
| 2026-04-25 07:37 | 17.22904 | 78.44959 | 1981 ft | 52 kts | 270° |
| 2026-04-25 07:38 | 17.22900 | 78.44343 | 1979 ft | 115 kts | 269° |
| 2026-04-25 07:38 | 17.22883 | 78.43331 | 1983 ft | 162 kts | 269° |
| 2026-04-25 07:38 | 17.22871 | 78.42110 | 2490 ft | 166 kts | 270° |
| 2026-04-25 07:38 | 17.22864 | 78.40852 | 2948 ft | 185 kts | 270° |
| 2026-04-25 07:39 | 17.22868 | 78.39415 | 3041 ft | 211 kts | 270° |
| 2026-04-25 07:39 | 17.22849 | 78.37803 | 3019 ft | 233 kts | 269° |
| 2026-04-25 07:39 | 17.22816 | 78.36008 | 3000 ft | 263 kts | 270° |
| 2026-04-25 07:39 | 17.22779 | 78.34041 | 2986 ft | 275 kts | 269° |
| 2026-04-25 07:40 | 17.22909 | 78.32043 | 3034 ft | 279 kts | 285° |
| 2026-04-25 07:40 | 17.23474 | 78.30088 | 3820 ft | 280 kts | 288° |
| 2026-04-25 07:40 | 17.24038 | 78.28142 | 4706 ft | 281 kts | 287° |
| 2026-04-25 07:40 | 17.24610 | 78.26177 | 5491 ft | 283 kts | 288° |
| 2026-04-25 07:41 | 17.25188 | 78.24193 | 6330 ft | 286 kts | 288° |
| 2026-04-25 07:41 | 17.25769 | 78.22188 | 7102 ft | 289 kts | 288° |
| 2026-04-25 07:41 | 17.26352 | 78.20185 | 7871 ft | 292 kts | 288° |
| 2026-04-25 07:41 | 17.26950 | 78.18137 | 8655 ft | 296 kts | 288° |
| 2026-04-25 07:42 | 17.27554 | 78.16071 | 9436 ft | 299 kts | 288° |
| 2026-04-25 07:42 | 17.28164 | 78.13968 | 10158 ft | 305 kts | 288° |
| 2026-04-25 07:42 | 17.28803 | 78.11762 | 10398 ft | 328 kts | 288° |
| 2026-04-25 07:42 | 17.29484 | 78.09413 | 10843 ft | 341 kts | 287° |
| 2026-04-25 07:43 | 17.30176 | 78.07020 | 11485 ft | 347 kts | 287° |
| 2026-04-25 07:43 | 17.30882 | 78.04586 | 12145 ft | 351 kts | 288° |
| 2026-04-25 07:43 | 17.31597 | 78.02127 | 12806 ft | 356 kts | 288° |
| 2026-04-25 07:43 | 17.32313 | 77.99668 | 13481 ft | 360 kts | 288° |
| 2026-04-25 07:44 | 17.33056 | 77.97111 | 14120 ft | 364 kts | 287° |
| 2026-04-25 07:44 | 17.33786 | 77.94595 | 14745 ft | 367 kts | 287° |
| 2026-04-25 07:44 | 17.34528 | 77.92031 | 15389 ft | 369 kts | 287° |
| 2026-04-25 07:44 | 17.35271 | 77.89453 | 16035 ft | 371 kts | 287° |
| 2026-04-25 07:45 | 17.36015 | 77.86866 | 16700 ft | 372 kts | 286° |
| 2026-04-25 07:45 | 17.36764 | 77.84267 | 17382 ft | 372 kts | 286° |
| 2026-04-25 07:45 | 17.37514 | 77.81667 | 18084 ft | 373 kts | 286° |
| 2026-04-25 07:45 | 17.38267 | 77.79063 | 18662 ft | 374 kts | 286° |
| 2026-04-25 07:46 | 17.39022 | 77.76442 | 19192 ft | 377 kts | 285° |
| 2026-04-25 07:46 | 17.39773 | 77.73845 | 19730 ft | 379 kts | 285° |
| 2026-04-25 07:46 | 17.40542 | 77.71192 | 20269 ft | 382 kts | 285° |
| 2026-04-25 07:46 | 17.41317 | 77.68517 | 20814 ft | 385 kts | 284° |
| 2026-04-25 07:47 | 17.42094 | 77.65827 | 21337 ft | 388 kts | 284° |
| 2026-04-25 07:47 | 17.42874 | 77.63115 | 21805 ft | 391 kts | 284° |
| 2026-04-25 07:47 | 17.43643 | 77.60378 | 21934 ft | 390 kts | 281° |
| 2026-04-25 07:47 | 17.44113 | 77.57598 | 21974 ft | 388 kts | 275° |
| 2026-04-25 07:48 | 17.44467 | 77.54804 | 21970 ft | 387 kts | 275° |
| 2026-04-25 07:48 | 17.44825 | 77.51987 | 22259 ft | 391 kts | 275° |
| 2026-04-25 07:48 | 17.45187 | 77.49155 | 22835 ft | 393 kts | 274° |
| 2026-04-25 07:48 | 17.45550 | 77.46309 | 23392 ft | 396 kts | 274° |
| 2026-04-25 07:49 | 17.45916 | 77.43444 | 23854 ft | 398 kts | 274° |
| 2026-04-25 07:49 | 17.46281 | 77.40599 | 24291 ft | 400 kts | 274° |
| 2026-04-25 07:49 | 17.46654 | 77.37705 | 24748 ft | 401 kts | 274° |
| 2026-04-25 07:49 | 17.47026 | 77.34801 | 25178 ft | 403 kts | 274° |
| 2026-04-25 07:50 | 17.47395 | 77.31891 | 25614 ft | 404 kts | 274° |
| 2026-04-25 07:50 | 17.47763 | 77.28967 | 26049 ft | 405 kts | 273° |
| 2026-04-25 07:50 | 17.48132 | 77.26038 | 26466 ft | 406 kts | 273° |
| 2026-04-25 07:50 | 17.48505 | 77.23099 | 26878 ft | 408 kts | 273° |
| 2026-04-25 07:51 | 17.48881 | 77.20148 | 27282 ft | 409 kts | 273° |
| 2026-04-25 07:51 | 17.49257 | 77.17186 | 27683 ft | 410 kts | 273° |
| 2026-04-25 07:51 | 17.49627 | 77.14258 | 28069 ft | 412 kts | 273° |
| 2026-04-25 07:51 | 17.50001 | 77.11279 | 28474 ft | 413 kts | 273° |
| 2026-04-25 07:52 | 17.50376 | 77.08289 | 28874 ft | 414 kts | 273° |
| 2026-04-25 07:52 | 17.50754 | 77.05290 | 29276 ft | 416 kts | 272° |
| 2026-04-25 07:52 | 17.51133 | 77.02283 | 29677 ft | 417 kts | 272° |
| 2026-04-25 07:52 | 17.51512 | 76.99257 | 30067 ft | 419 kts | 272° |
| 2026-04-25 07:53 | 17.51892 | 76.96224 | 30402 ft | 420 kts | 272° |
| 2026-04-25 07:53 | 17.52273 | 76.93180 | 30723 ft | 422 kts | 272° |
| 2026-04-25 07:53 | 17.52657 | 76.90124 | 31034 ft | 424 kts | 272° |
| 2026-04-25 07:53 | 17.53040 | 76.87054 | 31350 ft | 425 kts | 272° |
| 2026-04-25 07:54 | 17.53422 | 76.83989 | 31785 ft | 424 kts | 272° |
| 2026-04-25 07:54 | 17.53802 | 76.80932 | 32235 ft | 422 kts | 272° |
| 2026-04-25 07:54 | 17.54172 | 76.77928 | 32684 ft | 421 kts | 271° |
| 2026-04-25 07:54 | 17.54557 | 76.74894 | 33141 ft | 421 kts | 274° |
| 2026-04-25 07:55 | 17.55311 | 76.71911 | 33581 ft | 428 kts | 284° |
| 2026-04-25 07:55 | 17.56638 | 76.69083 | 34015 ft | 438 kts | 295° |
| 2026-04-25 07:55 | 17.58523 | 76.66539 | 34389 ft | 448 kts | 307° |
| 2026-04-25 07:55 | 17.60922 | 76.64392 | 34772 ft | 459 kts | 319° |
| 2026-04-25 07:56 | 17.63724 | 76.62718 | 35150 ft | 465 kts | 325° |
| 2026-04-25 07:56 | 17.66602 | 76.61158 | 35530 ft | 464 kts | 325° |
| 2026-04-25 07:56 | 17.69465 | 76.59608 | 35851 ft | 463 kts | 325° |
| 2026-04-25 07:56 | 17.72326 | 76.58055 | 35931 ft | 460 kts | 325° |
| 2026-04-25 07:57 | 17.77983 | 76.54974 | 35950 ft | 457 kts | 325° |
| 2026-04-25 07:57 | 17.83591 | 76.51915 | 35949 ft | 456 kts | 325° |
| 2026-04-25 07:58 | 17.89222 | 76.48842 | 35949 ft | 456 kts | 324° |
| 2026-04-25 07:58 | 17.94845 | 76.45766 | 35949 ft | 456 kts | 324° |
| 2026-04-25 07:59 | 18.00472 | 76.42694 | 35953 ft | 456 kts | 324° |
| 2026-04-25 07:59 | 18.06104 | 76.39690 | 35957 ft | 457 kts | 326° |
| 2026-04-25 08:00 | 18.11808 | 76.36711 | 35963 ft | 458 kts | 326° |
| 2026-04-25 08:00 | 18.17519 | 76.33721 | 35963 ft | 457 kts | 325° |
| 2026-04-25 08:01 | 18.23205 | 76.30717 | 35964 ft | 457 kts | 325° |
| 2026-04-25 08:01 | 18.28864 | 76.27719 | 35965 ft | 457 kts | 325° |
| 2026-04-25 08:02 | 18.34551 | 76.24718 | 35966 ft | 457 kts | 325° |
| 2026-04-25 08:02 | 18.40237 | 76.21712 | 35966 ft | 457 kts | 325° |
| 2026-04-25 08:03 | 18.45884 | 76.18719 | 35966 ft | 457 kts | 325° |
| 2026-04-25 08:03 | 18.51562 | 76.15709 | 35972 ft | 457 kts | 325° |
| 2026-04-25 08:04 | 18.57242 | 76.12701 | 35969 ft | 456 kts | 325° |
| 2026-04-25 08:04 | 18.62921 | 76.09691 | 35969 ft | 456 kts | 325° |
| 2026-04-25 08:05 | 18.68555 | 76.06694 | 35974 ft | 456 kts | 325° |
| 2026-04-25 08:05 | 18.74218 | 76.03678 | 35972 ft | 456 kts | 325° |
| 2026-04-25 08:06 | 18.79885 | 76.00669 | 35970 ft | 456 kts | 325° |
| 2026-04-25 08:06 | 18.85552 | 75.97655 | 35964 ft | 455 kts | 325° |
| 2026-04-25 08:07 | 18.91200 | 75.94640 | 35963 ft | 455 kts | 325° |
| 2026-04-25 08:07 | 18.96848 | 75.91628 | 35959 ft | 454 kts | 324° |
| 2026-04-25 08:08 | 19.02490 | 75.88622 | 35954 ft | 454 kts | 324° |
| 2026-04-25 08:08 | 19.08090 | 75.85631 | 35957 ft | 454 kts | 324° |
| 2026-04-25 08:09 | 19.13728 | 75.82617 | 35951 ft | 454 kts | 324° |
| 2026-04-25 08:09 | 19.19364 | 75.79603 | 35955 ft | 454 kts | 324° |
| 2026-04-25 08:10 | 19.25000 | 75.76588 | 35943 ft | 453 kts | 324° |
| 2026-04-25 08:10 | 19.30626 | 75.73576 | 35947 ft | 453 kts | 324° |
| 2026-04-25 08:11 | 19.36237 | 75.70564 | 35951 ft | 452 kts | 324° |
| 2026-04-25 08:11 | 19.41815 | 75.67571 | 35948 ft | 452 kts | 324° |
| 2026-04-25 08:12 | 19.44487 | 75.65887 | 35941 ft | 440 kts | 314° |
| 2026-04-25 08:12 | 19.46729 | 75.63758 | 35941 ft | 427 kts | 303° |
| 2026-04-25 08:12 | 19.48498 | 75.61289 | 35938 ft | 415 kts | 293° |
| 2026-04-25 08:12 | 19.49775 | 75.58596 | 35935 ft | 405 kts | 283° |
| 2026-04-25 08:13 | 19.50911 | 75.52895 | 35930 ft | 392 kts | 270° |
| 2026-04-25 08:14 | 19.51781 | 75.44260 | 35926 ft | 393 kts | 270° |
| 2026-04-25 08:14 | 19.52366 | 75.38489 | 35933 ft | 394 kts | 270° |
| 2026-04-25 08:15 | 19.52946 | 75.32744 | 35935 ft | 394 kts | 270° |
| 2026-04-25 08:15 | 19.53523 | 75.26963 | 35936 ft | 395 kts | 270° |
| 2026-04-25 08:16 | 19.54102 | 75.21176 | 35940 ft | 395 kts | 270° |
| 2026-04-25 08:16 | 19.54677 | 75.15381 | 35946 ft | 395 kts | 270° |
| 2026-04-25 08:17 | 19.55256 | 75.09587 | 35948 ft | 395 kts | 270° |
| 2026-04-25 08:17 | 19.55834 | 75.03789 | 35946 ft | 395 kts | 270° |
| 2026-04-25 08:18 | 19.56401 | 74.98008 | 35932 ft | 397 kts | 270° |
| 2026-04-25 08:18 | 19.56975 | 74.92173 | 35929 ft | 399 kts | 270° |
| 2026-04-25 08:18 | 19.57259 | 74.89251 | 35553 ft | 398 kts | 270° |
| 2026-04-25 08:19 | 19.57546 | 74.86300 | 34478 ft | 404 kts | 270° |
| 2026-04-25 08:19 | 19.57836 | 74.83337 | 33669 ft | 403 kts | 269° |
| 2026-04-25 08:19 | 19.58127 | 74.80401 | 32889 ft | 399 kts | 270° |
| 2026-04-25 08:19 | 19.58412 | 74.77489 | 32109 ft | 396 kts | 270° |
| 2026-04-25 08:20 | 19.58688 | 74.74633 | 31357 ft | 393 kts | 270° |
| 2026-04-25 08:20 | 19.58968 | 74.71779 | 30907 ft | 384 kts | 271° |
| 2026-04-25 08:20 | 19.59242 | 74.69002 | 30516 ft | 374 kts | 271° |
| 2026-04-25 08:20 | 19.59508 | 74.66287 | 30127 ft | 366 kts | 271° |
| 2026-04-25 08:21 | 19.59765 | 74.63624 | 29704 ft | 360 kts | 271° |
| 2026-04-25 08:21 | 19.60017 | 74.61005 | 29340 ft | 352 kts | 271° |
| 2026-04-25 08:21 | 19.60264 | 74.58450 | 28982 ft | 344 kts | 271° |
| 2026-04-25 08:21 | 19.60437 | 74.55982 | 28610 ft | 334 kts | 265° |
| 2026-04-25 08:22 | 19.60182 | 74.53551 | 28235 ft | 330 kts | 254° |
| 2026-04-25 08:22 | 19.59559 | 74.51211 | 27870 ft | 330 kts | 251° |
| 2026-04-25 08:22 | 19.58913 | 74.48880 | 27483 ft | 330 kts | 252° |
| 2026-04-25 08:22 | 19.58275 | 74.46536 | 27100 ft | 330 kts | 252° |
| 2026-04-25 08:23 | 19.57644 | 74.44193 | 26725 ft | 330 kts | 252° |
| 2026-04-25 08:23 | 19.57016 | 74.41851 | 26262 ft | 332 kts | 252° |
| 2026-04-25 08:23 | 19.56588 | 74.40265 | 25956 ft | 341 kts | 252° |
| 2026-04-25 08:23 | 19.55935 | 74.37851 | 25612 ft | 340 kts | 252° |
| 2026-04-25 08:24 | 19.55282 | 74.35441 | 25186 ft | 341 kts | 252° |
| 2026-04-25 08:24 | 19.54625 | 74.33021 | 24753 ft | 342 kts | 252° |
| 2026-04-25 08:24 | 19.53960 | 74.30590 | 24299 ft | 345 kts | 252° |
| 2026-04-25 08:24 | 19.53292 | 74.28140 | 23848 ft | 347 kts | 252° |
| 2026-04-25 08:25 | 19.52400 | 74.24863 | 23178 ft | 351 kts | 252° |
| 2026-04-25 08:25 | 19.51942 | 74.23183 | 22845 ft | 351 kts | 252° |
| 2026-04-25 08:25 | 19.51260 | 74.20693 | 22384 ft | 351 kts | 253° |
| 2026-04-25 08:25 | 19.50588 | 74.18236 | 21919 ft | 352 kts | 253° |
| 2026-04-25 08:26 | 19.49908 | 74.15741 | 21447 ft | 352 kts | 253° |
| 2026-04-25 08:26 | 19.49224 | 74.13245 | 20971 ft | 352 kts | 253° |
| 2026-04-25 08:26 | 19.48538 | 74.10747 | 20490 ft | 353 kts | 253° |
| 2026-04-25 08:26 | 19.47853 | 74.08243 | 20023 ft | 354 kts | 253° |
| 2026-04-25 08:27 | 19.47165 | 74.05730 | 19529 ft | 355 kts | 253° |
| 2026-04-25 08:27 | 19.46476 | 74.03213 | 19051 ft | 356 kts | 253° |
| 2026-04-25 08:27 | 19.45782 | 74.00685 | 18565 ft | 358 kts | 253° |
| 2026-04-25 08:27 | 19.45096 | 73.98180 | 18066 ft | 359 kts | 253° |
| 2026-04-25 08:28 | 19.44400 | 73.95634 | 17548 ft | 359 kts | 253° |
| 2026-04-25 08:28 | 19.43702 | 73.93093 | 17060 ft | 359 kts | 253° |
| 2026-04-25 08:28 | 19.43007 | 73.90570 | 16575 ft | 358 kts | 253° |
| 2026-04-25 08:28 | 19.42302 | 73.88033 | 16101 ft | 357 kts | 252° |
| 2026-04-25 08:29 | 19.41299 | 73.85671 | 15911 ft | 347 kts | 241° |
| 2026-04-25 08:29 | 19.40166 | 73.83471 | 15896 ft | 334 kts | 241° |
| 2026-04-25 08:29 | 19.39063 | 73.81317 | 15505 ft | 333 kts | 241° |
| 2026-04-25 08:29 | 19.37959 | 73.79165 | 15130 ft | 332 kts | 241° |
| 2026-04-25 08:30 | 19.36857 | 73.77022 | 14778 ft | 330 kts | 241° |
| 2026-04-25 08:30 | 19.35760 | 73.74892 | 14439 ft | 329 kts | 241° |
| 2026-04-25 08:30 | 19.34669 | 73.72773 | 14099 ft | 327 kts | 241° |
| 2026-04-25 08:30 | 19.33595 | 73.70689 | 13763 ft | 326 kts | 241° |
| 2026-04-25 08:31 | 19.32512 | 73.68588 | 13396 ft | 324 kts | 241° |
| 2026-04-25 08:31 | 19.31432 | 73.66495 | 13023 ft | 323 kts | 241° |
| 2026-04-25 08:31 | 19.30357 | 73.64412 | 12651 ft | 322 kts | 240° |
| 2026-04-25 08:31 | 19.29284 | 73.62336 | 12287 ft | 321 kts | 240° |
| 2026-04-25 08:32 | 19.28215 | 73.60268 | 11921 ft | 320 kts | 240° |
| 2026-04-25 08:32 | 19.27153 | 73.58211 | 11450 ft | 317 kts | 240° |
| 2026-04-25 08:32 | 19.26099 | 73.56170 | 10897 ft | 315 kts | 240° |
| 2026-04-25 08:32 | 19.25050 | 73.54143 | 10339 ft | 314 kts | 240° |
| 2026-04-25 08:33 | 19.24006 | 73.52123 | 9807 ft | 312 kts | 240° |
| 2026-04-25 08:33 | 19.22988 | 73.50151 | 9620 ft | 296 kts | 240° |
| 2026-04-25 08:33 | 19.22018 | 73.48270 | 9318 ft | 288 kts | 240° |
| 2026-04-25 08:33 | 19.20964 | 73.46517 | 9091 ft | 277 kts | 224° |
| 2026-04-25 08:34 | 19.19409 | 73.45411 | 8867 ft | 272 kts | 195° |
| 2026-04-25 08:34 | 19.17567 | 73.45217 | 8660 ft | 266 kts | 167° |
| 2026-04-25 08:34 | 19.15878 | 73.45926 | 8547 ft | 261 kts | 144° |
| 2026-04-25 08:34 | 19.14298 | 73.46880 | 8416 ft | 263 kts | 156° |
| 2026-04-25 08:35 | 19.12504 | 73.47283 | 8295 ft | 267 kts | 175° |
| 2026-04-25 08:35 | 19.10643 | 73.47288 | 8178 ft | 269 kts | 184° |
| 2026-04-25 08:35 | 19.08856 | 73.46704 | 8050 ft | 272 kts | 208° |
| 2026-04-25 08:35 | 19.07458 | 73.45367 | 7928 ft | 274 kts | 235° |
| 2026-04-25 08:36 | 19.06742 | 73.43507 | 7811 ft | 276 kts | 262° |
| 2026-04-25 08:36 | 19.06752 | 73.41486 | 7692 ft | 276 kts | 275° |
| 2026-04-25 08:36 | 19.06893 | 73.39494 | 7546 ft | 274 kts | 275° |
| 2026-04-25 08:36 | 19.07038 | 73.37486 | 7270 ft | 273 kts | 275° |
| 2026-04-25 08:37 | 19.07180 | 73.35485 | 6962 ft | 273 kts | 275° |
| 2026-04-25 08:37 | 19.07322 | 73.33483 | 6643 ft | 274 kts | 274° |
| 2026-04-25 08:37 | 19.07463 | 73.31463 | 6355 ft | 275 kts | 274° |
| 2026-04-25 08:37 | 19.07602 | 73.29446 | 6070 ft | 275 kts | 274° |
| 2026-04-25 08:38 | 19.07737 | 73.27446 | 5927 ft | 272 kts | 274° |
| 2026-04-25 08:38 | 19.07869 | 73.25466 | 5443 ft | 271 kts | 274° |
| 2026-04-25 08:38 | 19.08002 | 73.23487 | 5085 ft | 266 kts | 274° |
| 2026-04-25 08:38 | 19.08129 | 73.21597 | 4853 ft | 258 kts | 274° |
| 2026-04-25 08:39 | 19.08256 | 73.19729 | 4547 ft | 251 kts | 274° |
| 2026-04-25 08:39 | 19.08381 | 73.17921 | 4257 ft | 243 kts | 275° |
| 2026-04-25 08:39 | 19.08502 | 73.16159 | 4022 ft | 236 kts | 275° |
| 2026-04-25 08:39 | 19.08615 | 73.14500 | 3978 ft | 219 kts | 275° |
| 2026-04-25 08:40 | 19.08724 | 73.12908 | 3985 ft | 216 kts | 275° |
| 2026-04-25 08:40 | 19.08833 | 73.11324 | 3988 ft | 215 kts | 275° |
| 2026-04-25 08:40 | 19.08984 | 73.09742 | 3839 ft | 218 kts | 278° |
| 2026-04-25 08:40 | 19.09114 | 73.08149 | 3571 ft | 217 kts | 273° |
| 2026-04-25 08:41 | 19.09130 | 73.06575 | 3312 ft | 217 kts | 271° |
| 2026-04-25 08:41 | 19.09114 | 73.04976 | 3042 ft | 218 kts | 271° |
| 2026-04-25 08:41 | 19.09092 | 73.03395 | 2793 ft | 212 kts | 271° |
| 2026-04-25 08:41 | 19.09071 | 73.01853 | 2516 ft | 207 kts | 272° |
| 2026-04-25 08:42 | 19.09052 | 73.00360 | 2267 ft | 199 kts | 272° |
| 2026-04-25 08:42 | 19.09032 | 72.98933 | 2017 ft | 189 kts | 272° |
| 2026-04-25 08:42 | 19.09014 | 72.97568 | 1780 ft | 182 kts | 272° |
| 2026-04-25 08:42 | 19.08997 | 72.96264 | 1574 ft | 172 kts | 272° |
| 2026-04-25 08:43 | 19.08981 | 72.95033 | 1357 ft | 163 kts | 274° |
| 2026-04-25 08:43 | 19.08965 | 72.93873 | 1135 ft | 152 kts | 273° |
| 2026-04-25 08:43 | 19.08951 | 72.92781 | 961 ft | 146 kts | 273° |
| 2026-04-25 08:43 | 19.08937 | 72.91732 | 806 ft | 141 kts | 272° |
| 2026-04-25 08:44 | 19.08923 | 72.90722 | 645 ft | 134 kts | 271° |
| 2026-04-25 08:44 | 19.08910 | 72.89749 | 464 ft | 131 kts | 268° |
| 2026-04-25 08:44 | 19.08899 | 72.88789 | 307 ft | 131 kts | 272° |
| 2026-04-25 08:44 | 19.08887 | 72.87833 | 114 ft | 129 kts | 270° |
| 2026-04-25 08:45 | 19.08881 | 72.86919 | 54 ft | 112 kts | 269° |
| 2026-04-25 08:45 | 19.08864 | 72.86273 | 48 ft | 63 kts | 269° |
| 2026-04-25 08:45 | 19.08884 | 72.85993 | 47 ft | 14 kts | 285° |
| 2026-04-25 08:45 | 19.08893 | 72.85957 | 48 ft | 8 kts | 285° |
| 2026-04-25 08:46 | 19.08919 | 72.85894 | 47 ft | 10 kts | 299° |
| 2026-04-25 08:46 | 19.08960 | 72.85823 | 47 ft | 12 kts | 300° |
| 2026-04-25 08:46 | 19.09007 | 72.85736 | 49 ft | 15 kts | 300° |
| 2026-04-25 08:46 | 19.09029 | 72.85653 | 49 ft | 11 kts | 269° |
| 2026-04-25 08:47 | 19.09053 | 72.85604 | 48 ft | 8 kts | 347° |
| 2026-04-25 08:47 | 19.09102 | 72.85605 | 46 ft | 7 kts | 355° |
| 2026-04-25 08:47 | 19.09151 | 72.85604 | 48 ft | 4 kts | 0° |
| 2026-04-25 08:47 | 19.09158 | 72.85604 | 49 ft | 0 kts | 0° |
| 2026-04-25 09:04 | 19.09157 | 72.85604 | 49 ft | 0 kts | 0° |